Time;durP1;ratioP1;P1;durP2;ratioP2;P2;SDS_P1;SDS_P2;PMS_P1;PMS_P2;Temp;Humidity;BMP_temperature;BMP_pressure;BME280_temperature;BME280_humidity;BME280_pressure;Samples;Min_cycle;Max_cycle;Signal;HPM_P1;HPM_P2
2022/07/10 00:01:54;;;;;;;;;;;16.10;99.90;;;;;;5071487;28;20003;-75
2022/07/10 00:04:20;;;;;;;;;;;16.00;99.90;;;;;;5071539;28;19909;-76
2022/07/10 00:06:46;;;;;;;;;;;16.00;99.90;;;;;;5071952;28;20298;-81
2022/07/10 00:09:15;;;;;;;;;;;16.00;99.90;;;;;;5071036;28;19912;-77
2022/07/10 00:11:41;;;;;;;;;;;15.90;99.90;;;;;;5070814;28;20364;-75
2022/07/10 00:14:06;;;;;;;;;;;16.00;99.90;;;;;;5069953;28;20012;-75
2022/07/10 00:16:32;;;;;;;;;;;16.10;99.90;;;;;;5071413;28;20324;-78
2022/07/10 00:18:57;;;;;;;;;;;16.10;99.90;;;;;;5071882;28;19998;-75
2022/07/10 00:21:23;;;;;;;;;;;16.00;99.90;;;;;;5070301;28;20242;-75
2022/07/10 00:23:48;;;;;;;;;;;16.00;99.90;;;;;;5070845;28;19916;-76
2022/07/10 00:26:14;;;;;;;;;;;16.00;99.90;;;;;;5070156;28;19916;-75
2022/07/10 00:28:39;;;;;;;;;;;16.10;99.90;;;;;;5071456;28;19912;-74
2022/07/10 00:31:05;;;;;;;;;;;16.10;99.90;;;;;;5071038;28;19912;-75
2022/07/10 00:33:32;;;;;;;;;;;16.10;99.90;;;;;;5069109;28;19953;-80
2022/07/10 00:35:58;;;;;;;;;;;16.10;99.90;;;;;;5071637;28;20421;-75
2022/07/10 00:38:23;;;;;;;;;;;16.10;99.90;;;;;;5071200;28;19954;-74
2022/07/10 00:40:49;;;;;;;;;;;16.10;99.90;;;;;;5071499;28;19912;-77
2022/07/10 00:43:14;;;;;;;;;;;16.10;99.90;;;;;;5069020;28;19931;-75
2022/07/10 00:45:40;;;;;;;;;;;16.20;99.90;;;;;;5071596;28;19915;-74
2022/07/10 00:48:05;;;;;;;;;;;16.20;99.90;;;;;;5070767;28;19913;-75
2022/07/10 00:50:31;;;;;;;;;;;16.20;99.90;;;;;;5071309;28;19915;-80
2022/07/10 00:52:56;;;;;;;;;;;16.10;99.90;;;;;;5070475;28;19920;-75
2022/07/10 00:55:22;;;;;;;;;;;16.10;99.90;;;;;;5069357;28;19944;-75
2022/07/10 00:57:48;;;;;;;;;;;16.10;99.90;;;;;;5070963;28;20002;-75
2022/07/10 01:00:14;;;;;;;;;;;16.10;99.90;;;;;;5069377;28;19908;-77
2022/07/10 01:02:43;;;;;;;;;;;16.00;99.90;;;;;;5069171;28;20377;-78
2022/07/10 01:05:09;;;;;;;;;;;15.90;99.90;;;;;;5064562;28;19978;-75
2022/07/10 01:07:35;;;;;;;;;;;15.80;99.90;;;;;;5070879;28;20389;-75
2022/07/10 01:10:02;;;;;;;;;;;15.80;99.90;;;;;;5068855;28;19938;-77
2022/07/10 01:12:27;;;;;;;;;;;15.70;99.90;;;;;;5070364;28;19915;-79
2022/07/10 01:14:53;;;;;;;;;;;15.70;99.90;;;;;;5070197;28;19909;-74
2022/07/10 01:17:19;;;;;;;;;;;15.70;99.90;;;;;;5063724;28;19909;-75
2022/07/10 01:19:44;;;;;;;;;;;15.70;99.90;;;;;;5069328;28;20439;-74
2022/07/10 01:22:10;;;;;;;;;;;15.80;99.90;;;;;;5070290;28;19951;-75
2022/07/10 01:24:36;;;;;;;;;;;15.70;99.90;;;;;;5068977;28;20427;-78
2022/07/10 01:27:01;;;;;;;;;;;15.70;99.90;;;;;;5070921;28;19999;-74
2022/07/10 01:29:28;;;;;;;;;;;15.80;99.90;;;;;;5067249;28;19912;-74
2022/07/10 01:31:53;;;;;;;;;;;15.70;99.90;;;;;;5071876;28;19912;-79
2022/07/10 01:34:19;;;;;;;;;;;15.80;99.90;;;;;;5069864;28;19909;-75
2022/07/10 01:36:45;;;;;;;;;;;15.80;99.90;;;;;;5070478;28;20354;-75
2022/07/10 01:39:10;;;;;;;;;;;15.80;99.90;;;;;;5070805;28;19958;-76
2022/07/10 01:41:36;;;;;;;;;;;15.70;99.90;;;;;;5070273;28;19916;-74
2022/07/10 01:44:02;;;;;;;;;;;15.70;99.90;;;;;;5072894;28;20278;-74
2022/07/10 01:46:27;;;;;;;;;;;15.50;99.90;;;;;;5074638;28;19915;-75
2022/07/10 01:48:53;;;;;;;;;;;15.40;99.90;;;;;;5074439;28;19913;-74
2022/07/10 01:51:19;;;;;;;;;;;15.40;99.90;;;;;;5072709;28;19912;-75
2022/07/10 01:53:45;;;;;;;;;;;15.30;99.90;;;;;;5074239;28;19909;-75
2022/07/10 01:56:10;;;;;;;;;;;15.30;99.90;;;;;;5073439;28;19908;-80
2022/07/10 01:58:36;;;;;;;;;;;15.30;99.90;;;;;;5074433;28;19919;-75
2022/07/10 02:01:02;;;;;;;;;;;15.10;99.90;;;;;;5072974;28;19908;-75
2022/07/10 02:06:12;;;;;;;;;;;15.00;99.90;;;;;;5074589;28;20004;-75
2022/07/10 02:08:37;;;;;;;;;;;15.00;99.90;;;;;;5074248;28;20007;-75
2022/07/10 02:11:03;;;;;;;;;;;14.80;99.90;;;;;;5074246;28;20250;-76
2022/07/10 02:13:28;;;;;;;;;;;14.80;99.90;;;;;;5073174;28;19909;-78
2022/07/10 02:15:54;;;;;;;;;;;14.70;99.90;;;;;;5072957;28;19908;-75
2022/07/10 02:18:20;;;;;;;;;;;14.70;99.90;;;;;;5073911;28;20284;-75
2022/07/10 02:20:46;;;;;;;;;;;14.70;99.90;;;;;;5073630;28;19908;-75
2022/07/10 02:23:11;;;;;;;;;;;14.80;99.90;;;;;;5072892;28;19912;-76
2022/07/10 02:25:37;;;;;;;;;;;14.60;99.90;;;;;;5073969;28;20366;-77
2022/07/10 02:28:03;;;;;;;;;;;14.50;99.90;;;;;;5073807;28;19913;-75
2022/07/10 02:30:28;;;;;;;;;;;14.60;99.90;;;;;;5073576;28;19967;-75
2022/07/10 02:32:54;;;;;;;;;;;14.60;99.90;;;;;;5073787;28;19909;-75
2022/07/10 02:35:19;;;;;;;;;;;14.60;99.90;;;;;;5071662;28;19962;-78
2022/07/10 02:37:45;;;;;;;;;;;14.70;99.90;;;;;;5072319;28;19955;-75
2022/07/10 02:40:10;;;;;;;;;;;14.70;99.90;;;;;;5072248;28;19909;-74
2022/07/10 02:42:36;;;;;;;;;;;14.90;99.90;;;;;;5073177;28;19913;-74
2022/07/10 02:45:02;;;;;;;;;;;14.80;99.90;;;;;;5073093;28;20015;-75
2022/07/10 02:47:28;;;;;;;;;;;14.80;99.90;;;;;;5073436;28;19916;-77
2022/07/10 02:49:53;;;;;;;;;;;14.80;99.90;;;;;;5072024;28;19938;-75
2022/07/10 02:52:18;;;;;;;;;;;14.80;99.90;;;;;;5073173;28;19915;-75
2022/07/10 02:54:44;;;;;;;;;;;14.80;99.90;;;;;;5072692;28;20460;-76
2022/07/10 02:57:09;;;;;;;;;;;14.90;99.90;;;;;;5072069;28;19909;-74
2022/07/10 02:59:35;;;;;;;;;;;14.90;99.90;;;;;;5078014;28;19908;-74
2022/07/10 03:02:01;;;;;;;;;;;15.00;99.90;;;;;;5073506;28;19908;-74
2022/07/10 03:04:27;;;;;;;;;;;15.00;99.90;;;;;;5072154;28;19927;-75
2022/07/10 03:06:52;;;;;;;;;;;15.10;99.90;;;;;;5071640;28;19908;-76
2022/07/10 03:09:18;;;;;;;;;;;15.00;99.90;;;;;;5072942;28;19912;-74
2022/07/10 03:11:43;;;;;;;;;;;15.00;99.90;;;;;;5071275;28;20033;-74
2022/07/10 03:14:08;;;;;;;;;;;14.80;99.90;;;;;;5072387;28;19909;-74
2022/07/10 03:16:34;;;;;;;;;;;14.70;99.90;;;;;;5072783;28;20357;-74
2022/07/10 03:18:59;;;;;;;;;;;14.70;99.90;;;;;;5071235;28;19912;-74
2022/07/10 03:21:25;;;;;;;;;;;14.60;99.90;;;;;;5072891;28;20018;-74
2022/07/10 03:23:50;;;;;;;;;;;14.60;99.90;;;;;;5072252;28;20327;-76
2022/07/10 03:26:16;;;;;;;;;;;14.60;99.90;;;;;;5073376;28;20015;-74
2022/07/10 03:28:41;;;;;;;;;;;14.50;99.90;;;;;;5071520;28;19913;-74
2022/07/10 03:31:07;;;;;;;;;;;14.50;99.90;;;;;;5074057;28;20380;-75
2022/07/10 03:33:33;;;;;;;;;;;14.40;99.90;;;;;;5071584;28;19913;-79
2022/07/10 03:36:00;;;;;;;;;;;14.40;99.90;;;;;;5072474;28;19909;-74
2022/07/10 03:38:26;;;;;;;;;;;14.40;99.90;;;;;;5072695;28;19915;-74
2022/07/10 03:40:52;;;;;;;;;;;14.50;99.90;;;;;;5072552;28;19909;-74
2022/07/10 03:43:17;;;;;;;;;;;14.40;99.90;;;;;;5070262;28;19951;-75
2022/07/10 03:45:43;;;;;;;;;;;14.40;99.90;;;;;;5072192;28;20356;-78
2022/07/10 03:48:08;;;;;;;;;;;14.30;99.90;;;;;;5072117;28;19919;-74
2022/07/10 03:50:34;;;;;;;;;;;14.20;99.90;;;;;;5070927;28;19916;-75
2022/07/10 03:52:59;;;;;;;;;;;14.30;99.90;;;;;;5071690;28;19908;-75
2022/07/10 03:55:25;;;;;;;;;;;14.30;99.90;;;;;;5071781;28;19909;-79
2022/07/10 03:57:53;;;;;;;;;;;14.20;99.90;;;;;;5070613;28;20438;-74
2022/07/10 04:00:21;;;;;;;;;;;14.10;99.90;;;;;;5072237;28;19909;-74
2022/07/10 04:02:48;;;;;;;;;;;14.20;99.90;;;;;;5065105;28;19912;-74
2022/07/10 04:05:13;;;;;;;;;;;14.20;99.90;;;;;;5056529;28;19909;-77
2022/07/10 04:07:39;;;;;;;;;;;14.30;99.90;;;;;;5071733;28;19909;-75
2022/07/10 04:10:04;;;;;;;;;;;14.30;99.90;;;;;;5072107;28;20407;-75
2022/07/10 04:12:30;;;;;;;;;;;14.30;99.90;;;;;;5071718;28;20030;-75
2022/07/10 04:14:56;;;;;;;;;;;14.40;99.90;;;;;;5071321;28;19962;-75
2022/07/10 04:17:22;;;;;;;;;;;14.50;99.90;;;;;;5071674;28;19912;-74
2022/07/10 04:19:47;;;;;;;;;;;14.60;99.90;;;;;;5070277;28;20226;-75
2022/07/10 04:22:13;;;;;;;;;;;14.70;99.90;;;;;;5068019;28;19915;-75
2022/07/10 04:24:38;;;;;;;;;;;14.80;99.90;;;;;;5070845;28;20285;-75
2022/07/10 04:27:04;;;;;;;;;;;14.90;99.90;;;;;;5071529;28;19962;-79
2022/07/10 04:29:31;;;;;;;;;;;15.00;99.90;;;;;;5071380;28;19927;-79
2022/07/10 04:31:57;;;;;;;;;;;15.20;99.90;;;;;;5070913;28;19915;-75
2022/07/10 04:34:22;;;;;;;;;;;15.20;99.90;;;;;;5070821;28;19908;-75
2022/07/10 04:36:48;;;;;;;;;;;15.20;99.90;;;;;;5071484;28;19915;-79
2022/07/10 04:39:14;;;;;;;;;;;15.20;99.90;;;;;;5071666;28;19908;-75
2022/07/10 04:41:39;;;;;;;;;;;15.20;99.90;;;;;;5070355;28;19909;-75
2022/07/10 04:44:05;;;;;;;;;;;15.20;99.90;;;;;;5070808;28;19965;-75
2022/07/10 04:46:30;;;;;;;;;;;15.30;99.90;;;;;;5071145;28;20886;-74
2022/07/10 04:48:56;;;;;;;;;;;15.40;99.90;;;;;;5070151;28;19912;-75
2022/07/10 04:51:23;;;;;;;;;;;15.40;99.90;;;;;;5064740;28;19908;-75
2022/07/10 04:53:49;;;;;;;;;;;15.60;99.90;;;;;;5076329;28;19954;-79
2022/07/10 04:56:14;;;;;;;;;;;15.60;99.90;;;;;;5070429;28;19913;-76
2022/07/10 04:58:40;;;;;;;;;;;15.70;99.90;;;;;;5071199;28;19909;-74
2022/07/10 05:01:05;;;;;;;;;;;15.80;99.90;;;;;;5071064;28;19909;-75
2022/07/10 05:03:31;;;;;;;;;;;15.90;99.90;;;;;;5070402;28;20003;-80
2022/07/10 05:05:56;;;;;;;;;;;15.90;99.90;;;;;;5070903;28;19958;-75
2022/07/10 05:08:22;;;;;;;;;;;15.70;99.90;;;;;;5071700;28;19917;-76
2022/07/10 05:10:47;;;;;;;;;;;15.70;99.90;;;;;;5073862;28;19909;-76
2022/07/10 05:13:13;;;;;;;;;;;15.60;99.90;;;;;;5070854;28;19908;-76
2022/07/10 05:15:38;;;;;;;;;;;15.30;99.90;;;;;;5070616;28;20187;-75
2022/07/10 05:18:04;;;;;;;;;;;15.20;99.90;;;;;;5071624;28;20293;-76
2022/07/10 05:20:30;;;;;;;;;;;15.00;99.90;;;;;;5062384;28;20289;-75
2022/07/10 05:22:56;;;;;;;;;;;14.90;99.90;;;;;;5071571;28;19927;-74
2022/07/10 05:25:21;;;;;;;;;;;14.80;99.90;;;;;;5071540;28;19935;-73
2022/07/10 05:27:47;;;;;;;;;;;14.90;99.90;;;;;;5072579;28;20258;-75
2022/07/10 05:30:13;;;;;;;;;;;15.00;99.90;;;;;;5071476;28;19928;-75
2022/07/10 05:32:42;;;;;;;;;;;15.10;99.90;;;;;;5071122;28;20385;-75
2022/07/10 05:35:08;;;;;;;;;;;15.20;99.90;;;;;;5071443;28;19967;-74
2022/07/10 05:37:33;;;;;;;;;;;15.30;99.90;;;;;;5070811;28;19909;-75
2022/07/10 05:39:59;;;;;;;;;;;15.20;99.90;;;;;;5072413;28;19909;-75
2022/07/10 05:42:24;;;;;;;;;;;15.10;99.90;;;;;;5070522;28;19999;-75
2022/07/10 05:44:50;;;;;;;;;;;15.10;99.90;;;;;;5069587;28;20284;-75
2022/07/10 05:47:15;;;;;;;;;;;14.90;99.90;;;;;;5071445;28;19915;-75
2022/07/10 05:49:40;;;;;;;;;;;14.80;99.90;;;;;;5066025;28;19959;-74
2022/07/10 05:52:06;;;;;;;;;;;14.80;99.90;;;;;;5066973;28;19920;-74
2022/07/10 05:54:31;;;;;;;;;;;15.00;99.90;;;;;;5067276;28;19916;-75
2022/07/10 05:56:57;;;;;;;;;;;14.90;99.90;;;;;;5068325;28;19916;-75
2022/07/10 05:59:23;;;;;;;;;;;14.90;99.90;;;;;;5072419;28;19982;-75
2022/07/10 06:01:48;;;;;;;;;;;15.00;99.90;;;;;;5070071;28;20383;-75
2022/07/10 06:04:14;;;;;;;;;;;15.30;99.90;;;;;;5071048;28;20311;-75
2022/07/10 06:06:39;;;;;;;;;;;15.90;99.90;;;;;;5070476;28;19932;-75
2022/07/10 06:09:05;;;;;;;;;;;16.10;99.90;;;;;;5072026;28;20392;-75
2022/07/10 06:11:30;;;;;;;;;;;16.90;99.90;;;;;;5069459;28;19912;-74
2022/07/10 06:13:56;;;;;;;;;;;17.30;99.90;;;;;;5069889;28;19947;-76
2022/07/10 06:16:22;;;;;;;;;;;16.70;99.90;;;;;;5069945;28;20324;-75
2022/07/10 06:18:48;;;;;;;;;;;15.80;99.90;;;;;;5066653;28;19908;-76
2022/07/10 06:21:13;;;;;;;;;;;15.70;99.90;;;;;;5071085;28;19908;-74
2022/07/10 06:23:39;;;;;;;;;;;15.60;99.90;;;;;;5071164;28;19962;-74
2022/07/10 06:26:04;;;;;;;;;;;15.50;99.90;;;;;;5070766;28;19909;-76
2022/07/10 06:28:30;;;;;;;;;;;15.10;99.90;;;;;;5057786;28;19912;-75
2022/07/10 06:30:55;;;;;;;;;;;15.10;99.90;;;;;;5075327;28;19954;-75
2022/07/10 06:33:21;;;;;;;;;;;15.10;99.90;;;;;;5073332;28;19909;-74
2022/07/10 06:35:47;;;;;;;;;;;15.20;99.90;;;;;;5074501;28;20303;-75
2022/07/10 06:38:12;;;;;;;;;;;15.30;99.90;;;;;;5074269;28;19916;-75
2022/07/10 06:40:38;;;;;;;;;;;15.10;99.90;;;;;;5074824;28;19970;-75
2022/07/10 06:43:03;;;;;;;;;;;15.10;99.90;;;;;;5074392;28;19909;-75
2022/07/10 06:45:29;;;;;;;;;;;15.00;99.90;;;;;;5073748;28;19916;-75
2022/07/10 06:47:58;;;;;;;;;;;15.20;99.90;;;;;;5075844;28;20339;-76
2022/07/10 06:50:25;;;;;;;;;;;15.30;99.90;;;;;;5077096;28;19915;-75
2022/07/10 06:52:50;;;;;;;;;;;15.50;99.90;;;;;;5075684;28;19991;-76
2022/07/10 06:55:17;;;;;;;;;;;15.60;99.90;;;;;;5073805;28;19959;-76
2022/07/10 06:57:43;;;;;;;;;;;15.80;99.90;;;;;;5074778;28;20422;-76
2022/07/10 07:00:11;;;;;;;;;;;15.80;99.90;;;;;;5075418;28;19951;-76
2022/07/10 07:02:37;;;;;;;;;;;15.60;99.90;;;;;;5074774;28;19912;-76
2022/07/10 07:05:03;;;;;;;;;;;15.60;99.90;;;;;;5073601;28;19915;-76
2022/07/10 07:07:29;;;;;;;;;;;15.50;99.90;;;;;;5075756;28;20002;-77
2022/07/10 07:09:54;;;;;;;;;;;15.30;99.90;;;;;;5074175;28;19919;-76
2022/07/10 07:12:20;;;;;;;;;;;15.30;99.90;;;;;;5074756;28;19934;-76
2022/07/10 07:14:46;;;;;;;;;;;15.40;99.90;;;;;;5074290;28;20374;-76
2022/07/10 07:17:14;;;;;;;;;;;15.60;99.90;;;;;;5070220;28;19930;-76
2022/07/10 07:25:10;;;;;;;;;;;15.40;99.90;;;;;;5068498;28;19923;-76
2022/07/10 07:27:37;;;;;;;;;;;15.20;99.90;;;;;;5076356;28;19909;-76
2022/07/10 07:30:07;;;;;;;;;;;15.30;99.90;;;;;;5072838;28;19912;-76
2022/07/10 07:32:33;;;;;;;;;;;15.40;99.90;;;;;;5073086;28;19909;-76
2022/07/10 07:34:59;;;;;;;;;;;15.70;99.90;;;;;;5073614;28;20321;-76
2022/07/10 07:37:37;;;;;;;;;;;15.90;99.90;;;;;;5073989;28;19947;-75
2022/07/10 07:40:04;;;;;;;;;;;15.90;99.90;;;;;;5065192;28;19909;-76
2022/07/10 07:42:30;;;;;;;;;;;16.30;99.90;;;;;;5070179;28;19908;-76
2022/07/10 07:44:55;;;;;;;;;;;16.50;99.90;;;;;;5072263;28;19954;-76
2022/07/10 07:47:21;;;;;;;;;;;16.30;99.90;;;;;;5069891;28;19932;-77
2022/07/10 07:49:46;;;;;;;;;;;16.70;99.90;;;;;;5072443;28;19962;-76
2022/07/10 07:52:12;;;;;;;;;;;17.20;99.90;;;;;;5070924;28;19908;-77
2022/07/10 07:54:40;;;;;;;;;;;18.70;99.90;;;;;;5071912;28;19931;-77
2022/07/10 07:57:05;;;;;;;;;;;18.60;99.90;;;;;;5078083;28;19909;-75
2022/07/10 07:59:31;;;;;;;;;;;17.40;99.90;;;;;;5075264;28;19915;-75
2022/07/10 08:01:56;;;;;;;;;;;17.60;99.90;;;;;;5071959;28;19973;-75
2022/07/10 08:04:22;;;;;;;;;;;17.80;99.90;;;;;;5071642;28;19909;-75
2022/07/10 08:06:48;;;;;;;;;;;19.50;99.90;;;;;;5072066;28;19909;-76
2022/07/10 08:09:13;;;;;;;;;;;20.70;97.70;;;;;;5071706;28;20250;-75
2022/07/10 08:11:39;;;;;;;;;;;18.50;99.00;;;;;;5071617;28;19916;-75
2022/07/10 08:14:04;;;;;;;;;;;17.40;99.90;;;;;;5071585;28;19954;-76
2022/07/10 08:16:30;;;;;;;;;;;16.90;99.90;;;;;;5068011;28;20341;-75
2022/07/10 08:18:55;;;;;;;;;;;17.30;99.90;;;;;;5071688;28;19912;-75
2022/07/10 08:21:22;;;;;;;;;;;17.70;99.90;;;;;;5071542;28;19908;-75
2022/07/10 08:23:47;;;;;;;;;;;18.30;99.90;;;;;;5071440;28;20274;-75
2022/07/10 08:26:13;;;;;;;;;;;18.50;99.90;;;;;;5071595;28;19923;-75
2022/07/10 08:28:39;;;;;;;;;;;17.60;99.90;;;;;;5071898;28;19958;-75
2022/07/10 08:31:04;;;;;;;;;;;17.30;99.90;;;;;;5071943;28;19944;-76
2022/07/10 08:33:30;;;;;;;;;;;18.00;99.90;;;;;;5070806;28;20353;-76
2022/07/10 08:35:58;;;;;;;;;;;19.60;99.80;;;;;;5070140;28;20053;-76
2022/07/10 08:38:24;;;;;;;;;;;22.00;95.90;;;;;;5068274;28;20304;-75
2022/07/10 08:40:51;;;;;;;;;;;21.70;93.60;;;;;;5069548;28;19908;-75
2022/07/10 08:43:16;;;;;;;;;;;20.00;93.90;;;;;;5070251;28;19908;-75
2022/07/10 08:45:42;;;;;;;;;;;19.10;96.10;;;;;;5071713;28;20289;-76
2022/07/10 08:48:09;;;;;;;;;;;21.70;95.00;;;;;;5070206;28;19912;-77
2022/07/10 08:50:37;;;;;;;;;;;23.80;94.40;;;;;;5071757;28;19909;-76
2022/07/10 08:53:12;;;;;;;;;;;22.30;86.20;;;;;;5070932;28;19927;-76
2022/07/10 08:55:37;;;;;;;;;;;19.70;92.80;;;;;;5070262;28;19919;-75
2022/07/10 08:58:04;;;;;;;;;;;21.30;91.60;;;;;;5071230;28;19909;-75
2022/07/10 09:00:30;;;;;;;;;;;21.40;91.30;;;;;;5070711;28;19965;-76
2022/07/10 09:02:56;;;;;;;;;;;22.70;87.50;;;;;;5069943;28;20344;-75
2022/07/10 09:05:22;;;;;;;;;;;21.30;91.30;;;;;;5066915;28;19912;-76
2022/07/10 09:07:47;;;;;;;;;;;19.40;93.00;;;;;;5071018;28;19909;-76
2022/07/10 09:10:13;;;;;;;;;;;19.50;93.00;;;;;;5065485;28;19967;-76
2022/07/10 09:12:59;;;;;;;;;;;18.50;92.60;;;;;;5070260;28;19908;-76
2022/07/10 09:15:25;;;;;;;;;;;17.40;95.10;;;;;;5067341;28;19909;-76
2022/07/10 09:17:51;;;;;;;;;;;17.70;96.50;;;;;;5066713;28;19913;-76
2022/07/10 09:20:31;;;;;;;;;;;19.00;95.00;;;;;;5067702;28;20045;-75
2022/07/10 09:22:58;;;;;;;;;;;19.70;93.70;;;;;;5064015;28;19918;-75
2022/07/10 09:25:29;;;;;;;;;;;18.90;93.20;;;;;;5066280;28;19909;-75
2022/07/10 09:27:55;;;;;;;;;;;18.60;95.10;;;;;;5068431;28;20532;-75
2022/07/10 09:30:36;;;;;;;;;;;20.30;92.50;;;;;;5064829;28;19916;-76
2022/07/10 09:33:30;;;;;;;;;;;19.80;92.40;;;;;;5067504;28;19909;-75
2022/07/10 09:36:04;;;;;;;;;;;19.90;93.20;;;;;;5070001;28;20439;-76
2022/07/10 09:38:39;;;;;;;;;;;18.50;91.70;;;;;;5063684;28;20455;-76
2022/07/10 09:41:17;;;;;;;;;;;17.70;94.40;;;;;;5070647;28;19915;-75
2022/07/10 09:43:53;;;;;;;;;;;18.10;94.70;;;;;;5070301;28;19915;-75
2022/07/10 09:46:19;;;;;;;;;;;20.20;92.20;;;;;;5069600;28;19913;-76
2022/07/10 09:48:45;;;;;;;;;;;23.30;91.40;;;;;;5069534;28;19924;-76
2022/07/10 09:51:11;;;;;;;;;;;22.20;86.70;;;;;;5067727;28;19913;-76
2022/07/10 09:53:43;;;;;;;;;;;20.10;87.50;;;;;;5066574;28;19998;-76
2022/07/10 09:56:09;;;;;;;;;;;18.50;91.40;;;;;;5067640;28;19923;-76
2022/07/10 09:58:35;;;;;;;;;;;17.90;93.10;;;;;;5065683;28;19958;-76
2022/07/10 10:01:08;;;;;;;;;;;17.30;93.90;;;;;;5072364;28;20311;-75
2022/07/10 10:03:35;;;;;;;;;;;18.10;96.30;;;;;;5067694;28;19908;-75
2022/07/10 10:06:06;;;;;;;;;;;20.70;93.30;;;;;;5058630;28;19909;-76
2022/07/10 10:08:36;;;;;;;;;;;22.50;91.40;;;;;;5073029;28;19920;-76
2022/07/10 10:11:03;;;;;;;;;;;20.80;87.50;;;;;;5073162;28;19962;-76
2022/07/10 10:13:30;;;;;;;;;;;19.30;90.40;;;;;;5073264;28;19909;-76
2022/07/10 10:15:56;;;;;;;;;;;18.70;89.40;;;;;;5073690;28;19978;-75
2022/07/10 10:18:23;;;;;;;;;;;18.60;90.80;;;;;;5074298;28;20357;-75
2022/07/10 10:20:49;;;;;;;;;;;18.20;92.80;;;;;;5074245;28;19915;-76
2022/07/10 10:23:17;;;;;;;;;;;19.70;92.40;;;;;;5073442;28;19912;-76
2022/07/10 10:25:43;;;;;;;;;;;19.00;91.00;;;;;;5074183;28;19951;-76
2022/07/10 10:28:10;;;;;;;;;;;20.40;91.00;;;;;;5073958;28;20315;-76
2022/07/10 10:30:43;;;;;;;;;;;22.40;88.50;;;;;;5071329;28;19979;-76
2022/07/10 10:33:27;;;;;;;;;;;23.60;86.90;;;;;;5072715;28;19909;-76
2022/07/10 10:35:55;;;;;;;;;;;21.60;81.80;;;;;;5067954;28;20220;-76
2022/07/10 10:38:20;;;;;;;;;;;20.00;87.90;;;;;;5073742;28;19958;-75
2022/07/10 10:40:47;;;;;;;;;;;19.10;91.20;;;;;;5074122;28;20397;-75
2022/07/10 10:43:17;;;;;;;;;;;18.70;91.40;;;;;;5071368;28;19908;-76
2022/07/10 10:45:43;;;;;;;;;;;18.10;91.60;;;;;;5071994;28;19909;-76
2022/07/10 10:48:09;;;;;;;;;;;18.20;92.70;;;;;;5073746;28;20387;-75
2022/07/10 10:50:42;;;;;;;;;;;19.10;90.40;;;;;;5073788;28;19909;-76
2022/07/10 10:53:15;;;;;;;;;;;21.50;91.10;;;;;;5072548;28;19912;-76
2022/07/10 10:55:59;;;;;;;;;;;21.90;85.50;;;;;;5073728;28;19951;-76
2022/07/10 10:58:25;;;;;;;;;;;24.00;89.30;;;;;;5073577;28;19913;-76
2022/07/10 11:00:51;;;;;;;;;;;22.70;81.10;;;;;;5070750;28;20582;-76
2022/07/10 11:03:17;;;;;;;;;;;20.50;85.30;;;;;;5072038;28;19920;-76
2022/07/10 11:05:43;;;;;;;;;;;21.50;91.50;;;;;;5073449;28;19913;-76
2022/07/10 11:08:10;;;;;;;;;;;22.80;81.50;;;;;;5073140;28;19912;-76
2022/07/10 11:10:39;;;;;;;;;;;20.90;81.80;;;;;;5073519;28;19909;-76
2022/07/10 11:13:15;;;;;;;;;;;19.20;87.30;;;;;;5071184;28;20274;-76
2022/07/10 11:15:42;;;;;;;;;;;19.80;87.90;;;;;;5072866;28;19908;-76
2022/07/10 11:18:09;;;;;;;;;;;22.30;80.00;;;;;;5073109;28;19913;-76
2022/07/10 11:20:36;;;;;;;;;;;22.50;79.40;;;;;;5073223;28;19909;-76
2022/07/10 11:23:01;;;;;;;;;;;22.90;80.60;;;;;;5071196;28;20327;-76
2022/07/10 11:25:49;;;;;;;;;;;21.80;81.00;;;;;;5073018;28;19912;-76
2022/07/10 11:28:18;;;;;;;;;;;21.50;85.50;;;;;;5052740;28;19909;-76
2022/07/10 11:30:51;;;;;;;;;;;22.20;87.40;;;;;;5072605;28;19916;-76
2022/07/10 11:33:18;;;;;;;;;;;22.90;79.30;;;;;;5071842;28;19913;-76
2022/07/10 11:35:44;;;;;;;;;;;22.30;80.70;;;;;;5072919;28;20345;-76
2022/07/10 11:38:09;;;;;;;;;;;21.70;76.10;;;;;;5071477;28;19909;-76
2022/07/10 11:40:38;;;;;;;;;;;22.10;78.80;;;;;;5072871;28;19908;-76
2022/07/10 11:43:09;;;;;;;;;;;23.10;78.70;;;;;;5072180;28;19912;-76
2022/07/10 11:45:37;;;;;;;;;;;22.70;77.70;;;;;;5072406;28;19908;-76
2022/07/10 11:48:03;;;;;;;;;;;21.60;77.30;;;;;;5072545;28;20013;-76
2022/07/10 11:50:35;;;;;;;;;;;22.40;83.20;;;;;;5072892;28;19913;-76
2022/07/10 11:53:01;;;;;;;;;;;22.80;78.50;;;;;;5071971;28;19915;-75
2022/07/10 11:55:26;;;;;;;;;;;21.90;80.80;;;;;;5071984;28;19908;-76
2022/07/10 11:57:52;;;;;;;;;;;20.60;79.70;;;;;;5072373;28;19908;-76
2022/07/10 12:00:23;;;;;;;;;;;21.90;79.90;;;;;;5070022;28;19909;-76
2022/07/10 12:02:49;;;;;;;;;;;21.20;79.20;;;;;;5071600;28;19908;-76
2022/07/10 12:05:30;;;;;;;;;;;20.60;79.20;;;;;;5061828;28;19915;-76
2022/07/10 12:07:56;;;;;;;;;;;21.40;79.80;;;;;;5071468;28;19955;-76
2022/07/10 12:10:25;;;;;;;;;;;20.90;82.20;;;;;;5072081;28;20439;-76
2022/07/10 12:12:50;;;;;;;;;;;21.10;81.20;;;;;;5071531;28;20432;-76
2022/07/10 12:15:32;;;;;;;;;;;21.50;79.20;;;;;;5071116;28;19999;-76
2022/07/10 12:17:58;;;;;;;;;;;22.90;77.40;;;;;;5070744;28;19908;-76
2022/07/10 12:20:23;;;;;;;;;;;21.50;75.30;;;;;;5071827;28;19908;-76
2022/07/10 12:22:49;;;;;;;;;;;22.30;78.00;;;;;;5071268;28;20377;-76
2022/07/10 12:25:15;;;;;;;;;;;22.50;77.70;;;;;;5071445;28;19919;-76
2022/07/10 12:27:41;;;;;;;;;;;22.50;78.10;;;;;;5071183;28;19912;-76
2022/07/10 12:30:06;;;;;;;;;;;22.40;76.70;;;;;;5069136;28;19920;-76
2022/07/10 12:32:32;;;;;;;;;;;22.60;74.30;;;;;;5070761;28;19955;-76
2022/07/10 12:35:00;;;;;;;;;;;23.80;74.20;;;;;;5070918;28;20418;-76
2022/07/10 12:37:26;;;;;;;;;;;24.10;68.70;;;;;;5071498;28;19930;-76
2022/07/10 12:39:53;;;;;;;;;;;24.50;67.40;;;;;;5071676;28;19969;-76
2022/07/10 12:42:24;;;;;;;;;;;26.30;63.70;;;;;;5069997;28;20370;-75
2022/07/10 12:44:50;;;;;;;;;;;25.40;64.30;;;;;;5070909;28;19908;-76
2022/07/10 12:47:16;;;;;;;;;;;24.90;63.10;;;;;;5070297;28;20308;-76
2022/07/10 12:49:48;;;;;;;;;;;25.10;67.00;;;;;;5071275;28;19912;-76
2022/07/10 12:52:20;;;;;;;;;;;25.60;61.10;;;;;;5070997;28;19961;-76
2022/07/10 12:54:45;;;;;;;;;;;27.10;65.60;;;;;;5070823;28;19954;-76
2022/07/10 12:57:11;;;;;;;;;;;28.60;56.90;;;;;;5071400;28;19908;-76
2022/07/10 12:59:37;;;;;;;;;;;26.80;59.90;;;;;;5071446;28;19912;-76
2022/07/10 13:02:18;;;;;;;;;;;26.30;63.30;;;;;;5069034;28;19916;-76
2022/07/10 13:04:54;;;;;;;;;;;27.40;59.40;;;;;;5062866;28;19912;-76
2022/07/10 13:07:21;;;;;;;;;;;27.90;57.20;;;;;;5065845;28;19916;-76
2022/07/10 13:09:50;;;;;;;;;;;27.70;55.20;;;;;;5069827;28;20374;-76
2022/07/10 13:12:15;;;;;;;;;;;27.40;52.80;;;;;;5070784;28;19999;-76
2022/07/10 13:14:41;;;;;;;;;;;28.10;57.10;;;;;;5070405;28;19987;-76
2022/07/10 13:17:06;;;;;;;;;;;27.70;55.00;;;;;;5070720;28;19935;-76
2022/07/10 13:19:32;;;;;;;;;;;27.20;55.70;;;;;;5068946;28;19962;-76
2022/07/10 13:21:57;;;;;;;;;;;27.00;54.00;;;;;;5070832;28;19909;-76
2022/07/10 13:24:23;;;;;;;;;;;26.80;55.80;;;;;;5070520;28;19917;-76
2022/07/10 13:26:49;;;;;;;;;;;27.10;54.20;;;;;;5071055;28;19915;-76
2022/07/10 13:29:14;;;;;;;;;;;27.10;58.00;;;;;;5069685;28;20231;-76
2022/07/10 13:31:40;;;;;;;;;;;27.30;54.70;;;;;;5070140;28;20041;-76
2022/07/10 13:34:06;;;;;;;;;;;28.10;54.40;;;;;;5070263;28;20350;-76
2022/07/10 13:36:31;;;;;;;;;;;27.60;52.70;;;;;;5070958;28;19908;-76
2022/07/10 13:38:57;;;;;;;;;;;27.80;54.40;;;;;;5072310;28;19950;-77
2022/07/10 13:41:22;;;;;;;;;;;27.80;55.60;;;;;;5076596;28;19935;-76
2022/07/10 13:43:48;;;;;;;;;;;27.10;55.10;;;;;;5076209;28;19909;-76
2022/07/10 13:46:13;;;;;;;;;;;27.90;55.50;;;;;;5076725;28;19908;-76
2022/07/10 13:48:40;;;;;;;;;;;28.30;55.20;;;;;;5075227;28;19912;-76
2022/07/10 13:51:06;;;;;;;;;;;27.20;52.90;;;;;;5077076;28;19912;-76
2022/07/10 13:53:31;;;;;;;;;;;26.40;58.40;;;;;;5075658;28;20293;-76
2022/07/10 13:55:57;;;;;;;;;;;27.20;54.40;;;;;;5074902;28;19916;-76
2022/07/10 13:58:22;;;;;;;;;;;27.40;51.90;;;;;;5074699;28;19935;-76
2022/07/10 14:00:48;;;;;;;;;;;27.20;54.60;;;;;;5071764;28;19995;-76
2022/07/10 14:03:14;;;;;;;;;;;27.00;54.90;;;;;;5073204;28;19978;-76
2022/07/10 14:05:39;;;;;;;;;;;26.60;57.10;;;;;;5074521;28;19920;-76
2022/07/10 14:08:05;;;;;;;;;;;28.20;54.60;;;;;;5074561;28;19915;-75
2022/07/10 14:10:31;;;;;;;;;;;26.90;52.30;;;;;;5074350;28;19953;-76
2022/07/10 14:12:57;;;;;;;;;;;27.40;55.00;;;;;;5073614;28;20500;-76
2022/07/10 14:15:23;;;;;;;;;;;27.70;51.00;;;;;;5073902;28;20336;-76
2022/07/10 14:17:50;;;;;;;;;;;27.30;51.30;;;;;;5073817;28;20361;-76
2022/07/10 14:20:16;;;;;;;;;;;26.60;53.60;;;;;;5074256;28;20001;-76
2022/07/10 14:22:45;;;;;;;;;;;26.90;53.40;;;;;;5073650;28;20021;-76